WICK1: Arkansas River Nr Maize, KS

Data processed at Tue Mar 26 2019 23:44


All information presented herein is the property of the government of the United States of America and may be revised or deleted at any time without prior notice.
Dissemination of this information without the expressed written consent of the Public Affairs Office, Tulsa District U.S. Army Corps of Engineers is strictly prohibited.
These data are gathered electronically and, as presented, have not undergone any form of quality control. These data are not guaranteed to be valid or correct.
Go to home page.
Go to station list.
Go to home page.

Upstream stations:

Downstream station:
Previous Day
Next Day
Current Day
    
SHEF ID:       WICK1     ARKANSAS R NR MAIZE, KS
STATION TYPE:  

               PRECIP     STAGE  RIV-FLOW  BAT-LOAD
                   in        ft       cfs      volt
              Ccp-Rev   Ccp-Rev   Ccp-Rev   Ccp-Rev
(US/Central)
03/26 00:00      0.00      6.44       808     12.89
03/26 01:00      0.00      6.45       814     12.89
03/26 02:00      0.00      6.45       814     12.81
03/26 03:00      0.00      6.45       814     12.81
03/26 04:00      0.00      6.43       803     12.81
03/26 05:00      0.00      6.44       808     12.73
03/26 06:00      0.00      6.44       808     12.73
03/26 07:00      0.00      6.42       798     12.73
03/26 08:00      0.00      6.43       803     12.73
03/26 09:00      0.00      6.43       803     12.73
03/26 10:00      0.00      6.43       803     13.29
03/26 11:00      0.00      6.43       803     13.92
03/26 12:00      0.00      6.43       803     13.84
03/26 13:00      0.00      6.42       798     13.68
03/26 14:00      0.00      6.43       803     13.44
03/26 15:00      0.00      6.44       808     13.37
03/26 16:00      0.00      6.43       803     13.29
03/26 17:00      0.00      6.42       798     13.29
03/26 18:00      0.00      6.43       803     13.29
03/26 19:00      0.00      6.42       798     13.29
03/26 20:00      0.00      6.42       798     13.13
03/26 21:00      0.00      6.43       803     13.05
03/26 22:00      0.00      6.41       793     12.97
03/26 23:00      0.00      6.42       798     12.97